Time;durP1;ratioP1;P1;durP2;ratioP2;P2;SDS_P1;SDS_P2;PMS_P1;PMS_P2;Temp;Humidity;BMP_temperature;BMP_pressure;BME280_temperature;BME280_humidity;BME280_pressure;Samples;Min_cycle;Max_cycle;Signal;HPM_P1;HPM_P2
2023/05/02 00:01:56;;;;;;;7.82;3.83;;;;;;;6.88;79.11;96959.75;5076034;28;20083;-70
2023/05/02 00:04:25;;;;;;;5.15;3.83;;;;;;;6.82;79.72;96965.94;5075913;28;20052;-68
2023/05/02 00:06:52;;;;;;;8.80;3.55;;;;;;;6.76;80.13;96961.69;5075738;28;20136;-67
2023/05/02 00:09:20;;;;;;;5.90;3.45;;;;;;;6.76;79.77;96964.28;5075808;28;20402;-67
2023/05/02 00:11:47;;;;;;;6.40;3.60;;;;;;;6.72;79.82;96959.16;5075728;28;20041;-67
2023/05/02 00:14:14;;;;;;;7.05;3.42;;;;;;;6.72;80.01;96959.16;5075885;28;20052;-69
2023/05/02 00:16:41;;;;;;;5.53;3.03;;;;;;;6.67;79.29;96965.28;5075653;28;20574;-70
2023/05/02 00:19:10;;;;;;;7.05;3.60;;;;;;;6.65;79.22;96961.84;5075560;28;20062;-67
2023/05/02 00:21:37;;;;;;;6.15;3.67;;;;;;;6.60;79.51;96966.28;5075680;28;20055;-69
2023/05/02 00:24:04;;;;;;;7.95;3.15;;;;;;;6.61;79.69;96961.91;5075638;28;20049;-70
2023/05/02 00:26:31;;;;;;;8.30;3.75;;;;;;;6.62;79.10;96971.47;5075521;28;20072;-69
2023/05/02 00:29:00;;;;;;;8.32;3.25;;;;;;;6.63;79.26;96974.03;5075533;28;20087;-69
2023/05/02 00:31:27;;;;;;;6.20;3.42;;;;;;;6.65;78.99;96972.25;5075588;28;20102;-68
2023/05/02 00:33:54;;;;;;;5.88;4.10;;;;;;;6.57;79.18;96974.97;5075621;28;20080;-69
2023/05/02 00:36:22;;;;;;;7.53;3.33;;;;;;;6.45;79.45;96975.16;5075368;28;20057;-67
2023/05/02 00:38:50;;;;;;;4.68;3.78;;;;;;;6.45;79.36;96967.38;5075241;28;20062;-68
2023/05/02 00:41:17;;;;;;;4.60;3.20;;;;;;;6.42;79.37;96981.25;5075255;28;20076;-66
2023/05/02 00:43:44;;;;;;;3.63;3.17;;;;;;;6.40;79.29;96977.81;5075224;28;20052;-67
2023/05/02 00:46:12;;;;;;;4.13;3.40;;;;;;;6.39;79.55;96973.50;5075218;28;20053;-69
2023/05/02 00:48:39;;;;;;;4.60;3.03;;;;;;;6.28;79.36;96980.59;5075086;28;20049;-67
2023/05/02 00:51:07;;;;;;;11.07;3.75;;;;;;;6.22;79.60;96978.94;5075066;28;20048;-70
2023/05/02 00:53:36;;;;;;;5.68;3.72;;;;;;;6.06;80.50;96976.53;5074977;28;20071;-68
2023/05/02 00:56:03;;;;;;;9.02;3.38;;;;;;;5.94;81.60;96982.69;5074637;28;20047;-66
2023/05/02 00:58:31;;;;;;;9.32;3.65;;;;;;;5.96;81.45;96979.25;5074894;28;20056;-67
2023/05/02 01:01:08;;;;;;;10.07;4.18;;;;;;;5.97;81.73;96980.97;5075080;28;20060;-69
2023/05/02 01:03:42;;;;;;;4.75;3.65;;;;;;;6.00;81.56;96971.41;5074736;28;20136;-67
2023/05/02 01:06:25;;;;;;;4.68;3.72;;;;;;;6.00;81.17;96971.41;5074713;28;20132;-67
2023/05/02 01:09:02;;;;;;;4.60;3.92;;;;;;;6.00;80.70;96979.19;5074776;28;20501;-69
2023/05/02 01:11:39;;;;;;;4.32;3.88;;;;;;;5.96;80.97;96985.28;5074638;28;20044;-69
2023/05/02 01:14:11;;;;;;;6.18;3.35;;;;;;;5.88;81.18;96979.34;5074487;28;20076;-67
2023/05/02 01:16:40;;;;;;;5.03;3.88;;;;;;;5.86;80.22;96981.06;5074488;28;20398;-68
2023/05/02 01:19:13;;;;;;;5.18;4.47;;;;;;;5.82;80.14;96985.47;5074416;28;20118;-66
2023/05/02 01:21:42;;;;;;;5.50;3.35;;;;;;;5.78;80.24;96978.59;5074528;28;20123;-66
2023/05/02 01:24:20;;;;;;;5.60;3.90;;;;;;;5.73;80.12;96989.03;5074376;28;20106;-68
2023/05/02 01:26:56;;;;;;;6.40;4.00;;;;;;;5.59;81.27;96985.72;5074324;28;20410;-67
2023/05/02 01:29:27;;;;;;;5.15;4.00;;;;;;;5.60;81.14;96983.09;5074245;28;20048;-69
2023/05/02 01:31:58;;;;;;;10.00;4.57;;;;;;;5.41;83.63;96982.44;5074190;28;20448;-69
2023/05/02 01:34:27;;;;;;;6.75;4.07;;;;;;;5.44;83.62;96992.78;5074219;28;20060;-68
2023/05/02 01:36:57;;;;;;;5.07;4.57;;;;;;;5.44;83.91;96991.06;5074192;28;20076;-68
2023/05/02 01:39:26;;;;;;;4.47;3.80;;;;;;;5.44;83.00;96980.69;5074114;28;20185;-67
2023/05/02 01:41:57;;;;;;;5.35;3.75;;;;;;;5.43;83.23;96984.16;5074338;28;20055;-67
2023/05/02 01:44:27;;;;;;;5.05;3.88;;;;;;;5.38;83.93;96988.53;5074111;28;20051;-69
2023/05/02 01:46:56;;;;;;;7.45;3.65;;;;;;;5.29;83.76;96989.47;5073943;28;20135;-67
2023/05/02 01:49:25;;;;;;;9.73;3.95;;;;;;;5.17;83.70;96979.22;5073950;28;20056;-67
2023/05/02 01:51:53;;;;;;;7.45;4.20;;;;;;;5.06;83.67;96979.34;5073775;28;20051;-69
2023/05/02 01:54:23;;;;;;;7.00;4.25;;;;;;;4.98;85.39;96978.53;5074023;28;20127;-67
2023/05/02 01:56:51;;;;;;;6.63;3.35;;;;;;;4.99;85.41;96980.22;5074006;28;20549;-69
2023/05/02 01:59:22;;;;;;;6.20;4.22;;;;;;;5.03;84.29;96980.19;5073683;28;20052;-66
2023/05/02 02:01:52;;;;;;;5.47;3.83;;;;;;;5.01;84.05;96973.31;5073764;28;20047;-66
2023/05/02 02:04:20;;;;;;;9.90;4.32;;;;;;;4.96;84.58;96973.34;5073768;28;20048;-66
2023/05/02 02:06:52;;;;;;;5.80;4.03;;;;;;;4.96;84.66;96975.09;5072924;28;20055;-67
2023/05/02 02:09:19;;;;;;;4.82;3.80;;;;;;;4.93;83.80;96970.78;5073538;28;20131;-69
2023/05/02 02:11:52;;;;;;;4.53;3.65;;;;;;;4.88;83.62;96978.59;5073522;28;20041;-69
2023/05/02 02:14:25;;;;;;;3.88;3.25;;;;;;;4.87;83.51;96978.59;5073483;28;20091;-66
2023/05/02 02:16:56;;;;;;;5.35;3.50;;;;;;;4.87;83.08;96976.00;5073398;28;20087;-69
2023/05/02 02:19:24;;;;;;;4.90;3.50;;;;;;;4.90;83.02;96986.34;5073247;28;20048;-66
2023/05/02 02:21:55;;;;;;;3.92;3.45;;;;;;;4.94;82.72;96985.47;5073796;28;20513;-67
2023/05/02 02:24:24;;;;;;;5.38;3.10;;;;;;;4.94;82.02;96995.84;5073544;28;20410;-67
2023/05/02 02:26:51;;;;;;;4.47;3.30;;;;;;;4.91;81.37;96988.94;5073343;28;20079;-66
2023/05/02 02:29:18;;;;;;;4.78;2.97;;;;;;;4.81;81.77;96995.06;5073248;28;20075;-69
2023/05/02 02:31:45;;;;;;;3.42;2.95;;;;;;;4.78;82.53;96989.91;5073243;28;20052;-67
2023/05/02 02:34:14;;;;;;;4.15;2.67;;;;;;;4.72;81.86;96984.78;5073346;28;20131;-69
2023/05/02 02:36:46;;;;;;;4.78;2.80;;;;;;;4.72;81.96;96990.81;5073181;28;20052;-70
2023/05/02 02:39:25;;;;;;;6.32;2.75;;;;;;;4.70;81.68;96989.13;5073097;28;20048;-68
2023/05/02 02:42:06;;;;;;;2.40;2.20;;;;;;;4.72;81.13;96993.41;5073176;28;20051;-69
2023/05/02 02:44:43;;;;;;;4.85;2.38;;;;;;;4.72;81.31;96996.00;5073134;28;20128;-69
2023/05/02 02:47:16;;;;;;;5.18;2.50;;;;;;;4.64;81.05;96990.88;5073197;28;20051;-68
2023/05/02 02:49:50;;;;;;;6.47;2.80;;;;;;;4.61;81.38;96985.69;5073166;28;20406;-69
2023/05/02 02:52:24;;;;;;;2.70;2.47;;;;;;;4.54;81.35;96984.03;5072991;28;20048;-69
2023/05/02 02:54:58;;;;;;;5.43;2.60;;;;;;;4.53;81.82;96985.78;5073186;28;20055;-67
2023/05/02 02:57:33;;;;;;;8.35;2.90;;;;;;;4.50;80.92;96990.97;5073027;28;20051;-69
2023/05/02 03:00:18;;;;;;;5.40;2.28;;;;;;;4.42;80.64;96988.44;5073016;28;20581;-66
2023/05/02 03:02:47;;;;;;;2.60;2.08;;;;;;;4.41;80.50;96991.91;5072898;28;20076;-67
2023/05/02 03:05:17;;;;;;;3.45;2.60;;;;;;;4.35;81.30;96993.66;5072875;28;20048;-69
2023/05/02 03:07:44;;;;;;;4.55;2.40;;;;;;;4.29;82.15;96995.44;5072899;28;20044;-67
2023/05/02 03:10:11;;;;;;;3.13;2.42;;;;;;;4.24;82.34;96994.56;5072825;28;20045;-66
2023/05/02 03:12:40;;;;;;;4.15;2.55;;;;;;;4.28;81.90;97000.63;5072772;28;20048;-69
2023/05/02 03:15:23;;;;;;;5.43;2.67;;;;;;;4.28;82.18;97001.44;5072842;28;20070;-69
2023/05/02 03:17:50;;;;;;;5.43;2.67;;;;;;;4.32;81.54;97004.03;5072759;28;20084;-69
2023/05/02 03:20:19;;;;;;;4.25;2.08;;;;;;;4.32;81.66;97009.22;5076969;28;20093;-67
2023/05/02 03:22:47;;;;;;;3.08;2.40;;;;;;;4.37;81.88;97005.72;5076928;28;20049;-68
2023/05/02 03:25:14;;;;;;;5.18;2.30;;;;;;;4.40;81.84;97021.25;5076941;28;20127;-69
2023/05/02 03:27:41;;;;;;;9.60;2.67;;;;;;;4.45;81.67;97012.63;5076715;28;20442;-66
2023/05/02 03:30:09;;;;;;;4.00;2.13;;;;;;;4.41;80.68;97025.59;5076526;28;21376;-69
2023/05/02 03:32:37;;;;;;;4.97;2.45;;;;;;;4.38;80.50;97020.41;5076601;28;20051;-70
2023/05/02 03:35:04;;;;;;;4.47;2.80;;;;;;;4.41;80.42;97025.59;5076590;28;20106;-66
2023/05/02 03:37:34;;;;;;;2.72;2.38;;;;;;;4.35;80.68;97017.84;5076655;28;20057;-67
2023/05/02 03:40:02;;;;;;;4.38;2.10;;;;;;;4.39;80.39;97018.66;5076400;28;20062;-67
2023/05/02 03:42:30;;;;;;;6.55;2.70;;;;;;;4.41;80.63;97019.53;5076219;28;20095;-69
2023/05/02 03:44:57;;;;;;;3.63;2.75;;;;;;;4.46;80.73;97022.09;5076353;28;20045;-68
2023/05/02 03:47:25;;;;;;;7.22;3.13;;;;;;;4.44;80.54;97024.69;5076247;28;20094;-66
2023/05/02 03:49:52;;;;;;;7.43;2.42;;;;;;;4.49;81.26;97033.28;5076176;28;20082;-67
2023/05/02 03:52:20;;;;;;;2.65;2.00;;;;;;;4.91;81.68;97040.78;5076439;28;20056;-66
2023/05/02 03:54:49;;;;;;;9.52;2.50;;;;;;;5.66;80.01;97039.31;5076152;28;20099;-69
2023/05/02 03:57:16;;;;;;;3.97;2.00;;;;;;;6.42;76.69;97043.63;5076328;28;20055;-67
2023/05/02 03:59:44;;;;;;;5.35;1.98;;;;;;;7.15;73.83;97048.66;5076075;28;20135;-68
2023/05/02 04:02:11;;;;;;;2.17;1.63;;;;;;;7.84;71.14;97053.53;5075988;28;20052;-67
2023/05/02 04:04:39;;;;;;;4.53;1.98;;;;;;;8.41;67.41;97055.91;5075922;28;20044;-68
2023/05/02 04:07:08;;;;;;;5.28;1.58;;;;;;;8.84;65.52;97047.16;5076180;28;20147;-67
2023/05/02 04:09:40;;;;;;;4.50;1.85;;;;;;;9.05;63.89;97058.00;5075864;28;20052;-66
2023/05/02 04:12:10;;;;;;;4.28;2.60;;;;;;;9.10;63.98;97058.72;5074936;28;20421;-67
2023/05/02 04:14:38;;;;;;;3.17;2.25;;;;;;;9.28;63.83;97061.81;5075878;28;20239;-69
2023/05/02 04:17:07;;;;;;;3.55;2.00;;;;;;;9.61;62.61;97059.22;5075749;28;20076;-66
2023/05/02 04:19:35;;;;;;;2.65;1.63;;;;;;;9.99;61.87;97060.84;5075693;28;20048;-67
2023/05/02 04:22:04;;;;;;;2.72;1.80;;;;;;;10.33;60.87;97059.91;5075646;28;20056;-68
2023/05/02 04:24:32;;;;;;;4.22;1.75;;;;;;;10.77;59.53;97057.84;5075852;28;20055;-68
2023/05/02 04:27:00;;;;;;;2.10;1.80;;;;;;;11.09;59.65;97055.97;5075517;28;20055;-68
2023/05/02 04:29:29;;;;;;;2.20;1.70;;;;;;;11.44;58.97;97053.94;5075368;28;20075;-68
2023/05/02 04:31:56;;;;;;;4.80;2.03;;;;;;;11.84;58.33;97064.00;5075092;28;20049;-68
2023/05/02 04:34:23;;;;;;;3.55;1.58;;;;;;;12.25;57.08;97058.19;5075487;28;20050;-67
2023/05/02 04:36:50;;;;;;;3.22;1.85;;;;;;;12.63;57.08;97062.94;5075352;28;20044;-67
2023/05/02 04:39:17;;;;;;;6.05;2.05;;;;;;;12.91;56.59;97053.16;5075254;28;20056;-68
2023/05/02 04:41:45;;;;;;;3.15;2.42;;;;;;;13.25;56.03;97057.91;5075686;28;20095;-67
2023/05/02 04:44:12;;;;;;;4.38;1.85;;;;;;;13.69;53.88;97063.19;5074992;28;20109;-69
2023/05/02 04:46:41;;;;;;;1.95;1.77;;;;;;;14.04;54.03;97063.44;5075143;28;20060;-68
2023/05/02 04:49:09;;;;;;;1.67;1.55;;;;;;;14.28;52.48;97068.53;5075160;28;20052;-69
2023/05/02 04:51:36;;;;;;;2.65;1.60;;;;;;;14.44;52.34;97063.44;5075075;28;20543;-69
2023/05/02 04:54:03;;;;;;;5.75;1.92;;;;;;;14.48;52.92;97067.63;5075161;28;20053;-68
2023/05/02 04:56:30;;;;;;;3.08;1.75;;;;;;;14.79;52.63;97062.78;5075550;28;20053;-67
2023/05/02 04:58:57;;;;;;;1.92;1.83;;;;;;;15.15;52.17;97063.72;5074946;28;20056;-68
2023/05/02 05:01:26;;;;;;;3.63;1.58;;;;;;;15.43;51.34;97061.50;5075251;28;20063;-68
2023/05/02 05:03:55;;;;;;;6.63;1.80;;;;;;;15.72;49.59;97061.84;5074955;28;20174;-68
2023/05/02 05:06:23;;;;;;;4.72;1.70;;;;;;;16.02;50.85;97066.53;5074777;28;20106;-68
2023/05/02 05:08:50;;;;;;;1.92;1.38;;;;;;;16.35;50.75;97065.69;5074724;28;20394;-68
2023/05/02 05:11:17;;;;;;;5.07;1.60;;;;;;;16.62;48.69;97065.13;5074748;28;20045;-68
2023/05/02 05:13:45;;;;;;;4.60;2.08;;;;;;;17.03;47.46;97063.78;5074656;28;20044;-68
2023/05/02 05:16:12;;;;;;;2.17;1.70;;;;;;;17.33;48.41;97071.91;5074610;28;20076;-68
2023/05/02 05:18:40;;;;;;;2.97;1.70;;;;;;;17.65;47.61;97077.09;5074444;28;20049;-69
2023/05/02 05:21:09;;;;;;;1.83;1.70;;;;;;;17.66;46.33;97079.66;5074719;28;20123;-68
2023/05/02 05:23:38;;;;;;;2.92;2.00;;;;;;;17.78;44.15;97078.09;5074481;28;20044;-69
2023/05/02 05:26:12;;;;;;;6.80;2.53;;;;;;;17.90;44.59;97081.81;5074411;28;20052;-69
2023/05/02 05:28:39;;;;;;;4.75;2.40;;;;;;;18.18;43.97;97080.19;5074308;28;20409;-69
2023/05/02 05:31:07;;;;;;;8.52;2.50;;;;;;;18.46;46.59;97080.31;5074259;28;20051;-68
2023/05/02 05:33:34;;;;;;;9.75;2.92;;;;;;;18.62;46.14;97074.91;5074548;28;20070;-67
2023/05/02 05:36:06;;;;;;;10.68;2.35;;;;;;;18.87;43.85;97083.94;5074331;28;20083;-69
2023/05/02 05:38:35;;;;;;;5.80;2.30;;;;;;;19.11;42.74;97088.66;5074048;28;20387;-68
2023/05/02 05:41:03;;;;;;;2.13;1.90;;;;;;;19.13;41.85;97091.22;5074020;28;20487;-68
2023/05/02 05:43:31;;;;;;;3.25;1.85;;;;;;;19.23;42.26;97081.72;5073027;28;20047;-68
2023/05/02 05:45:58;;;;;;;4.57;2.13;;;;;;;19.48;41.56;97079.28;5074219;28;20045;-68
2023/05/02 05:48:25;;;;;;;2.22;1.98;;;;;;;19.41;40.86;97084.13;5074153;28;20161;-68
2023/05/02 05:50:53;;;;;;;4.25;2.38;;;;;;;19.53;41.74;97085.09;5073965;28;20048;-68
2023/05/02 05:53:21;;;;;;;6.70;2.65;;;;;;;19.74;41.50;97092.63;5073830;28;20045;-69
2023/05/02 05:55:49;;;;;;;3.53;2.33;;;;;;;19.97;41.51;97091.06;5073853;28;20045;-68
2023/05/02 05:58:17;;;;;;;4.50;2.72;;;;;;;19.80;41.01;97086.88;5073795;28;20068;-69
2023/05/02 06:00:44;;;;;;;4.50;2.35;;;;;;;19.90;41.20;97089.78;5073670;28;20048;-68
2023/05/02 06:03:11;;;;;;;8.23;2.03;;;;;;;20.31;40.22;97091.44;5073687;28;20048;-69
2023/05/02 06:05:38;;;;;;;2.78;1.90;;;;;;;20.82;39.85;97088.84;5073640;28;20044;-69
2023/05/02 06:08:05;;;;;;;9.20;2.10;;;;;;;21.30;38.77;97095.22;5073883;28;20083;-69
2023/05/02 06:10:33;;;;;;;7.10;2.63;;;;;;;21.66;37.84;97092.59;5073635;28;20044;-69
2023/05/02 06:13:01;;;;;;;5.15;2.22;;;;;;;21.80;36.88;97096.94;5073574;28;20048;-69
2023/05/02 06:15:28;;;;;;;2.42;2.08;;;;;;;22.02;36.40;97089.97;5073429;28;20084;-68
2023/05/02 06:17:55;;;;;;;1.83;1.73;;;;;;;22.27;34.31;97088.94;5073409;28;20076;-69
2023/05/02 06:20:22;;;;;;;7.93;2.35;;;;;;;22.21;34.80;97092.06;5073405;28;20088;-69
2023/05/02 06:22:49;;;;;;;4.18;1.77;;;;;;;22.32;33.89;97094.78;5073335;28;20410;-69
2023/05/02 06:25:16;;;;;;;2.65;1.90;;;;;;;22.38;33.82;97089.91;5073275;28;20053;-69
2023/05/02 06:27:43;;;;;;;6.85;1.88;;;;;;;22.28;30.82;97087.13;5073333;28;20090;-69
2023/05/02 06:30:13;;;;;;;4.00;2.22;;;;;;;22.53;31.74;97093.19;5073535;28;20052;-69
2023/05/02 06:32:41;;;;;;;4.05;1.98;;;;;;;22.58;31.11;97088.41;5073206;28;20102;-69
2023/05/02 06:35:09;;;;;;;2.97;1.98;;;;;;;22.51;29.32;97089.81;5073217;28;20048;-68
2023/05/02 06:37:36;;;;;;;5.88;1.83;;;;;;;22.63;28.67;97088.88;5073354;28;20080;-69
2023/05/02 06:40:04;;;;;;;3.35;1.73;;;;;;;22.59;29.49;97090.94;5073269;28;20052;-69
2023/05/02 06:42:31;;;;;;;3.53;1.95;;;;;;;22.22;31.04;97089.28;5072831;28;20127;-69
2023/05/02 06:44:58;;;;;;;2.70;1.38;;;;;;;22.02;30.29;97088.16;5073174;28;20049;-69
2023/05/02 06:47:27;;;;;;;4.85;1.80;;;;;;;22.05;30.24;97087.94;5072998;28;20044;-69
2023/05/02 06:49:56;;;;;;;7.90;1.75;;;;;;;22.58;30.07;97083.06;5072999;28;20045;-69
2023/05/02 06:52:23;;;;;;;4.25;1.70;;;;;;;22.94;29.63;97086.44;5073158;28;20052;-69
2023/05/02 06:54:50;;;;;;;2.65;1.90;;;;;;;23.05;29.45;97082.91;5072646;28;20509;-69
2023/05/02 06:57:17;;;;;;;7.43;2.10;;;;;;;22.98;28.91;97084.38;5072974;28;20506;-69
2023/05/02 06:59:44;;;;;;;5.88;2.13;;;;;;;22.90;29.00;97090.31;5072832;28;20562;-69
2023/05/02 07:02:11;;;;;;;5.45;2.17;;;;;;;22.93;27.97;97089.22;5073034;28;20166;-69
2023/05/02 07:04:40;;;;;;;3.70;1.90;;;;;;;23.13;28.91;97094.78;5073258;28;20056;-69
2023/05/02 07:07:07;;;;;;;3.97;1.60;;;;;;;23.41;27.47;97089.88;5073041;28;20126;-69
2023/05/02 07:09:34;;;;;;;4.00;1.60;;;;;;;23.20;27.13;97096.81;5072967;28;20080;-69
2023/05/02 07:12:02;;;;;;;3.58;2.00;;;;;;;23.27;26.48;97099.00;5072798;28;20044;-69
2023/05/02 07:14:29;;;;;;;3.15;1.80;;;;;;;23.34;25.36;97089.50;5072829;28;20055;-69
2023/05/02 07:16:56;;;;;;;4.35;1.73;;;;;;;23.26;26.10;97094.66;5073034;28;20049;-69
2023/05/02 07:19:23;;;;;;;3.92;2.03;;;;;;;23.12;25.32;97090.41;5072774;28;20057;-69
2023/05/02 07:21:52;;;;;;;6.25;1.67;;;;;;;23.01;24.96;97088.59;5072747;28;20584;-69
2023/05/02 07:24:19;;;;;;;4.32;2.00;;;;;;;22.68;25.69;97092.03;5072700;28;20044;-69
2023/05/02 07:26:46;;;;;;;2.88;1.75;;;;;;;22.42;26.80;97100.22;5072734;28;20082;-69
2023/05/02 07:29:14;;;;;;;5.15;2.33;;;;;;;22.51;26.31;97103.97;5072732;28;20433;-69
2023/05/02 07:31:41;;;;;;;4.70;2.03;;;;;;;22.52;28.13;97095.03;5072714;28;20397;-69
2023/05/02 07:34:08;;;;;;;4.28;1.80;;;;;;;22.83;26.60;97095.31;5072965;28;20131;-69
2023/05/02 07:36:36;;;;;;;5.82;1.63;;;;;;;22.90;25.59;97100.97;5072660;28;20045;-69
2023/05/02 07:39:05;;;;;;;4.03;1.75;;;;;;;22.64;26.51;97101.25;5072732;28;20413;-69
2023/05/02 07:41:32;;;;;;;5.03;1.65;;;;;;;22.77;25.94;97110.94;5072601;28;20040;-69
2023/05/02 07:43:59;;;;;;;4.70;1.73;;;;;;;22.79;23.69;97109.00;5072415;28;20041;-69
2023/05/02 07:46:26;;;;;;;4.68;1.83;;;;;;;22.59;24.16;97106.94;5072607;28;20044;-69
2023/05/02 07:48:54;;;;;;;2.72;1.73;;;;;;;22.42;26.51;97110.03;5072488;28;20441;-68
2023/05/02 07:51:21;;;;;;;7.03;1.73;;;;;;;22.50;26.50;97115.63;5072816;28;20551;-68
2023/05/02 07:53:52;;;;;;;5.13;1.80;;;;;;;22.53;27.76;97120.72;5072465;28;20482;-69
2023/05/02 07:56:21;;;;;;;4.53;1.88;;;;;;;22.46;26.18;97114.16;5072433;28;20049;-69
2023/05/02 07:58:48;;;;;;;2.60;1.77;;;;;;;22.79;22.36;97114.34;5072355;28;20048;-68
2023/05/02 08:01:16;;;;;;;3.00;1.60;;;;;;;21.99;25.28;97116.84;5072386;28;20091;-68
2023/05/02 08:03:43;;;;;;;6.03;2.10;;;;;;;21.96;24.96;97123.25;5072434;28;20044;-69
2023/05/02 08:06:10;;;;;;;6.20;1.75;;;;;;;21.62;24.99;97121.28;5074284;28;20478;-68
2023/05/02 08:08:37;;;;;;;2.22;1.80;;;;;;;21.82;25.62;97113.63;5075925;28;20044;-68
2023/05/02 08:11:04;;;;;;;5.45;1.65;;;;;;;21.65;24.34;97114.88;5075901;28;20070;-68
2023/05/02 08:13:33;;;;;;;3.17;1.80;;;;;;;21.27;25.67;97117.56;5075956;28;20045;-68
2023/05/02 08:16:01;;;;;;;3.72;1.80;;;;;;;21.36;27.87;97109.88;5075842;28;20486;-67
2023/05/02 08:18:28;;;;;;;4.72;1.67;;;;;;;21.41;27.87;97105.06;5075657;28;20053;-68
2023/05/02 08:20:57;;;;;;;6.63;1.75;;;;;;;21.33;29.14;97117.13;5075605;28;20135;-69
2023/05/02 08:23:24;;;;;;;3.85;1.77;;;;;;;21.56;27.01;97111.94;5075673;28;20048;-68
2023/05/02 08:25:51;;;;;;;4.15;1.58;;;;;;;21.84;26.07;97106.38;5075576;28;20055;-68
2023/05/02 08:28:18;;;;;;;3.42;1.50;;;;;;;21.64;27.65;97106.03;5075898;28;20129;-67
2023/05/02 08:30:47;;;;;;;1.88;1.30;;;;;;;21.89;28.95;97103.38;5075753;28;20045;-67
2023/05/02 08:33:14;;;;;;;4.47;1.70;;;;;;;22.13;29.40;97098.00;5075522;28;20506;-68
2023/05/02 08:35:41;;;;;;;6.15;1.70;;;;;;;22.20;28.40;97098.38;5075527;28;20049;-68
2023/05/02 08:38:08;;;;;;;5.40;1.70;;;;;;;21.73;24.83;97099.16;5075334;28;20048;-68
2023/05/02 08:40:37;;;;;;;5.47;2.30;;;;;;;21.63;29.13;97098.16;5075309;28;20048;-68
2023/05/02 08:43:05;;;;;;;4.25;1.42;;;;;;;21.89;29.57;97112.22;5075027;28;20234;-69
2023/05/02 08:45:37;;;;;;;1.77;1.60;;;;;;;21.95;26.55;97101.09;5075367;28;20076;-68
2023/05/02 08:48:09;;;;;;;3.65;1.50;;;;;;;21.95;25.99;97110.91;5075207;28;20047;-68
2023/05/02 08:50:38;;;;;;;3.05;1.90;;;;;;;21.27;28.59;97112.25;5075085;28;20479;-68
2023/05/02 08:53:06;;;;;;;3.88;1.50;;;;;;;21.29;29.91;97112.16;5075037;28;20052;-68
2023/05/02 08:55:34;;;;;;;4.45;1.55;;;;;;;21.56;26.50;97108.44;5075331;28;20049;-69
2023/05/02 08:58:03;;;;;;;4.95;2.00;;;;;;;21.60;27.89;97107.22;5075102;28;20547;-68
2023/05/02 09:00:31;;;;;;;6.10;1.75;;;;;;;21.58;28.91;97101.16;5075045;28;20086;-68
2023/05/02 09:03:13;;;;;;;3.83;1.75;;;;;;;21.79;28.44;97100.56;5075040;28;20059;-69
2023/05/02 09:05:42;;;;;;;2.70;1.90;;;;;;;21.63;26.24;97091.03;5074743;28;20045;-69
2023/05/02 09:08:09;;;;;;;2.30;1.60;;;;;;;21.43;27.44;97095.19;5074820;28;20482;-68
2023/05/02 09:10:37;;;;;;;4.35;1.67;;;;;;;21.48;28.64;97098.34;5074689;28;20504;-68
2023/05/02 09:13:32;;;;;;;6.05;1.88;;;;;;;21.41;26.23;97089.13;5074789;28;20045;-68
2023/05/02 09:16:01;;;;;;;3.72;1.73;;;;;;;21.29;28.24;97094.38;5074428;28;20045;-69
2023/05/02 09:18:33;;;;;;;3.45;1.90;;;;;;;21.13;29.22;97084.00;5074558;28;20051;-67
2023/05/02 09:21:02;;;;;;;2.45;1.58;;;;;;;21.18;28.60;97081.88;5074425;28;20131;-68
2023/05/02 09:23:43;;;;;;;2.22;1.35;;;;;;;21.16;24.40;97089.09;5074475;28;20063;-67
2023/05/02 09:26:18;;;;;;;6.75;1.83;;;;;;;20.55;27.37;97101.31;5074433;28;20048;-68
2023/05/02 09:28:46;;;;;;;4.60;1.60;;;;;;;20.01;26.53;97081.09;5074221;28;20053;-68
2023/05/02 09:31:15;;;;;;;3.83;1.90;;;;;;;19.97;30.03;97079.59;5074352;28;20048;-66
2023/05/02 09:33:44;;;;;;;8.68;1.90;;;;;;;19.96;31.40;97076.09;5074239;28;20044;-67
2023/05/02 09:36:14;;;;;;;3.83;1.60;;;;;;;20.29;28.06;97066.78;5074293;28;20094;-67
2023/05/02 09:38:42;;;;;;;5.22;2.00;;;;;;;20.42;30.72;97064.13;5074287;28;20098;-67
2023/05/02 09:41:09;;;;;;;4.00;1.63;;;;;;;20.59;29.68;97070.06;5074090;28;20129;-68
2023/05/02 09:43:37;;;;;;;3.10;1.48;;;;;;;20.55;27.70;97076.53;5073937;28;20049;-66
2023/05/02 09:46:05;;;;;;;6.03;2.05;;;;;;;20.35;29.42;97064.66;5074117;28;20091;-66
2023/05/02 09:48:34;;;;;;;3.88;1.90;;;;;;;20.41;29.10;97070.38;5073944;28;20387;-67
2023/05/02 09:51:03;;;;;;;14.70;1.90;;;;;;;20.34;30.41;97055.84;5074221;28;20041;-67
2023/05/02 09:53:30;;;;;;;4.38;1.48;;;;;;;20.16;27.30;97053.50;5073940;28;20050;-68
2023/05/02 09:56:01;;;;;;;3.85;1.67;;;;;;;19.96;27.79;97054.88;5073985;28;20041;-68
2023/05/02 09:58:29;;;;;;;1.75;1.60;;;;;;;19.88;26.78;97060.69;5073925;28;20044;-69
2023/05/02 10:00:57;;;;;;;3.60;1.90;;;;;;;19.86;27.31;97051.13;5073705;28;20076;-68
2023/05/02 10:03:26;;;;;;;4.47;1.80;;;;;;;19.54;29.38;97050.53;5074006;28;20057;-69
2023/05/02 10:05:54;;;;;;;3.15;1.65;;;;;;;19.47;31.71;97054.53;5073730;28;20051;-68
2023/05/02 10:08:27;;;;;;;3.53;1.85;;;;;;;19.75;31.80;97038.59;5073655;28;20056;-68
2023/05/02 10:10:56;;;;;;;9.93;2.10;;;;;;;20.16;31.59;97040.22;5073531;28;20055;-69
2023/05/02 10:13:26;;;;;;;2.33;1.73;;;;;;;20.47;31.84;97052.34;5073586;28;20496;-69
2023/05/02 10:16:00;;;;;;;5.03;1.80;;;;;;;20.71;30.44;97036.47;5073664;28;20049;-69
2023/05/02 10:18:29;;;;;;;4.15;1.95;;;;;;;20.74;31.10;97046.03;5073428;28;20047;-69
2023/05/02 10:20:58;;;;;;;3.53;1.52;;;;;;;20.69;29.65;97038.38;5073594;28;20048;-67
2023/05/02 10:23:30;;;;;;;3.97;1.48;;;;;;;20.64;30.79;97041.34;5073575;28;20106;-68
2023/05/02 10:26:00;;;;;;;2.30;1.40;;;;;;;20.75;31.35;97045.03;5073346;28;20048;-70
2023/05/02 10:28:28;;;;;;;4.30;2.53;;;;;;;20.69;29.94;97049.88;5072969;28;20147;-68
2023/05/02 10:30:57;;;;;;;3.70;2.03;;;;;;;20.58;28.15;97040.00;5073317;28;20429;-67
2023/05/02 10:33:25;;;;;;;11.27;2.80;;;;;;;20.44;28.73;97038.28;5073314;28;20123;-67
2023/05/02 10:35:52;;;;;;;4.43;2.38;;;;;;;20.46;28.98;97040.84;5073219;28;20049;-67
2023/05/02 10:38:21;;;;;;;3.97;2.53;;;;;;;19.92;28.77;97046.25;5073224;28;20068;-67
2023/05/02 10:40:55;;;;;;;3.47;2.00;;;;;;;19.82;28.84;97047.81;5073148;28;20561;-68
2023/05/02 10:43:26;;;;;;;6.03;2.28;;;;;;;20.05;29.38;97037.47;5072993;28;20087;-68
2023/05/02 10:45:54;;;;;;;4.72;2.00;;;;;;;19.94;28.28;97036.38;5073373;28;20049;-67
2023/05/02 10:48:23;;;;;;;4.05;1.52;;;;;;;19.63;28.48;97037.59;5073165;28;20497;-68
2023/05/02 10:50:52;;;;;;;2.33;1.73;;;;;;;19.49;27.76;97036.72;5073045;28;20087;-67
2023/05/02 10:53:30;;;;;;;6.75;1.98;;;;;;;19.32;29.85;97033.38;5073119;28;20045;-68
2023/05/02 10:56:20;;;;;;;4.13;1.50;;;;;;;19.10;30.51;97036.59;5073052;28;20106;-68
2023/05/02 10:58:49;;;;;;;7.57;1.45;;;;;;;19.10;30.57;97041.03;5072985;28;20059;-67
2023/05/02 11:01:38;;;;;;;3.00;1.45;;;;;;;19.18;32.77;97028.97;5072952;28;20048;-66
2023/05/02 11:04:10;;;;;;;4.40;1.70;;;;;;;19.55;31.30;97043.41;5073088;28;20087;-66
2023/05/02 11:06:57;;;;;;;4.90;1.70;;;;;;;19.50;29.15;97041.06;5072997;28;20072;-68
2023/05/02 11:09:35;;;;;;;8.55;1.90;;;;;;;19.41;29.91;97029.28;5072973;28;20056;-66
2023/05/02 11:12:05;;;;;;;3.05;1.45;;;;;;;19.65;30.71;97028.59;5072942;28;20055;-66
2023/05/02 11:14:48;;;;;;;6.78;1.73;;;;;;;19.57;29.28;97025.63;5073045;28;20048;-67
2023/05/02 11:17:16;;;;;;;3.00;1.83;;;;;;;19.23;29.90;97030.50;5072760;28;20055;-68
2023/05/02 11:20:26;;;;;;;3.92;1.73;;;;;;;19.34;31.44;97012.06;5072993;28;20066;-67
2023/05/02 11:22:54;;;;;;;2.90;1.70;;;;;;;19.51;31.38;96999.50;5072849;28;20045;-68
2023/05/02 11:25:32;;;;;;;2.65;1.60;;;;;;;19.81;33.59;97016.94;5072655;28;20136;-67
2023/05/02 11:28:01;;;;;;;3.63;1.70;;;;;;;19.65;31.48;97023.28;5072745;28;20079;-68
2023/05/02 11:30:47;;;;;;;4.13;1.83;;;;;;;19.40;31.23;97013.47;5072678;28;20478;-67
2023/05/02 11:33:16;;;;;;;1.98;1.63;;;;;;;19.51;31.53;97012.75;5072752;28;20402;-66
2023/05/02 11:35:47;;;;;;;5.68;1.27;;;;;;;19.29;30.22;97020.34;5072535;28;20476;-67
2023/05/02 11:38:17;;;;;;;5.20;1.58;;;;;;;19.21;31.81;97008.53;5072807;28;20185;-68
2023/05/02 11:40:52;;;;;;;3.65;1.83;;;;;;;19.28;32.54;97013.34;5075468;28;20048;-67
2023/05/02 11:43:21;;;;;;;2.85;1.67;;;;;;;19.38;32.70;97004.78;5076426;28;20045;-67
2023/05/02 11:45:48;;;;;;;5.78;1.63;;;;;;;19.28;31.46;97000.06;5076345;28;20485;-66
2023/05/02 11:48:18;;;;;;;2.38;1.50;;;;;;;19.52;31.75;96999.38;5076243;28;20044;-67